CheckWX is a tool to help pilots better visualize weather data.  It is not intended as a substitute for an official pre-flight weather briefing.

08:44:27 UTC

KTOL TAF
Toledo Express Airport
Toledo, Ohio, USA
KTOL 180522Z 1806/1906 33004KT P6SM FEW050 FM181600 01004KT P6SM SKC

Oct-18@
06:00 UTC

Oct-18 @ 06:00 UTC

Oct-18@
16:00 UTC

Oct-18 @ 16:00 UTC

KTOL 180522Z 1806/1906 33004KT P6SM FEW050
Wind
  • 330° at 4 KTS
Cloud Levels
  • Few at 5,000' AGL

Oct-18@
16:00 UTC

Oct-18 @ 16:00 UTC

Oct-19@
06:00 UTC

Oct-19 @ 06:00 UTC

FM181600 01004KT P6SM SKC

From

From Standard forecast or significant change

Wind
  • 010° at 4 KTS
Cloud Levels
  • Clear skies